Time;durP1;ratioP1;P1;durP2;ratioP2;P2;SDS_P1;SDS_P2;PMS_P1;PMS_P2;Temp;Humidity;BMP_temperature;BMP_pressure;BME280_temperature;BME280_humidity;BME280_pressure;Samples;Min_cycle;Max_cycle;Signal;HPM_P1;HPM_P2
2022/10/19 00:01:42;;;;;;;6.90;2.90;;;9.10;99.90;;;;;;6273705;22;19992;-71
2022/10/19 00:04:08;;;;;;;11.03;2.23;;;9.00;99.90;;;;;;6272144;22;20007;-71
2022/10/19 00:06:35;;;;;;;8.37;2.00;;;9.00;99.90;;;;;;6273276;22;20079;-71
2022/10/19 00:09:16;;;;;;;6.20;2.00;;;8.90;99.90;;;;;;6273086;22;20014;-71
2022/10/19 00:11:45;;;;;;;6.97;2.20;;;8.80;99.90;;;;;;6273704;22;20652;-71
2022/10/19 00:14:17;;;;;;;7.03;2.23;;;8.90;99.90;;;;;;6273287;22;20002;-71
2022/10/19 00:16:44;;;;;;;13.67;2.80;;;8.70;99.90;;;;;;6273347;22;20079;-71
2022/10/19 00:19:19;;;;;;;8.50;2.43;;;8.70;99.90;;;;;;6273567;22;20000;-71
2022/10/19 00:21:45;;;;;;;6.77;2.17;;;8.70;99.90;;;;;;6273515;22;20007;-71
2022/10/19 00:24:11;;;;;;;7.90;1.93;;;8.60;99.90;;;;;;6271312;22;20022;-71
2022/10/19 00:26:37;;;;;;;6.10;2.27;;;8.60;99.90;;;;;;6273046;22;20007;-71
2022/10/19 00:29:04;;;;;;;11.37;2.57;;;9.10;99.90;;;;;;6273484;22;20000;-71
2022/10/19 00:31:29;;;;;;;5.30;2.10;;;8.50;99.90;;;;;;6273263;22;20003;-71
2022/10/19 00:33:56;;;;;;;6.87;2.40;;;8.40;99.90;;;;;;6273306;22;20039;-71
2022/10/19 00:36:30;;;;;;;5.47;2.40;;;8.30;99.90;;;;;;6272907;22;20023;-71
2022/10/19 00:38:57;;;;;;;6.60;2.30;;;8.30;99.90;;;;;;6273002;22;20061;-71
2022/10/19 00:41:25;;;;;;;4.73;2.30;;;8.30;99.90;;;;;;6272916;22;20007;-71
2022/10/19 00:44:07;;;;;;;5.50;2.53;;;8.30;99.90;;;;;;6273028;22;19999;-71
2022/10/19 00:46:35;;;;;;;5.10;2.33;;;8.20;99.90;;;;;;6273275;22;20058;-71
2022/10/19 00:49:12;;;;;;;11.40;2.53;;;8.10;99.90;;;;;;6273343;22;19992;-71
2022/10/19 00:51:42;;;;;;;8.30;2.57;;;8.10;99.90;;;;;;6272734;22;20443;-71
2022/10/19 00:54:08;;;;;;;6.40;2.33;;;8.10;99.90;;;;;;6273213;22;20350;-71
2022/10/19 00:56:36;;;;;;;6.53;2.60;;;8.10;99.90;;;;;;6273098;22;20395;-71
2022/10/19 00:59:04;;;;;;;7.40;2.50;;;7.80;99.90;;;;;;6273275;22;20003;-71
2022/10/19 01:01:32;;;;;;;9.87;2.57;;;8.10;99.90;;;;;;6273025;22;20490;-71
2022/10/19 01:03:58;;;;;;;6.00;2.60;;;8.00;99.90;;;;;;6272865;22;20049;-71
2022/10/19 01:06:24;;;;;;;11.63;3.07;;;7.90;99.90;;;;;;6273042;22;20639;-71
2022/10/19 01:08:50;;;;;;;5.57;2.33;;;;;;;;;;6272501;22;20010;-71
2022/10/19 01:11:43;;;;;;;8.67;3.03;;;7.90;99.90;;;;;;6272794;22;19996;-71
2022/10/19 01:14:53;;;;;;;5.60;2.60;;;7.90;99.90;;;;;;6272824;22;20010;-71
2022/10/19 01:17:35;;;;;;;10.23;2.10;;;7.90;99.90;;;;;;6148947;23;20471;-71
2022/10/19 01:20:39;;;;;;;6.33;2.50;;;7.70;99.90;;;;;;6149245;23;20022;-71
2022/10/19 01:23:09;;;;;;;4.50;2.80;;;7.70;99.90;;;;;;6061487;23;20014;-72
2022/10/19 01:26:07;;;;;;;7.30;3.33;;;7.70;99.90;;;;;;6061489;23;20658;-71
2022/10/19 01:29:00;;;;;;;9.33;3.47;;;7.70;99.90;;;;;;6061552;23;20101;-71
2022/10/19 01:31:35;;;;;;;10.57;2.97;;;7.60;99.90;;;;;;6061544;23;20070;-71
2022/10/19 01:34:32;;;;;;;7.70;3.53;;;7.60;99.90;;;;;;6061519;23;20015;-71
2022/10/19 01:37:36;;;;;;;7.50;3.33;;;7.60;99.90;;;;;;6061268;23;20014;-71
2022/10/19 01:40:29;;;;;;;7.78;3.10;;;7.60;99.90;;;;;;6051659;23;20006;-71
2022/10/19 01:43:03;;;;;;;4.20;3.00;;;7.60;99.90;;;;;;6061451;23;20034;-71
2022/10/19 01:45:40;;;;;;;7.88;4.30;;;7.60;99.90;;;;;;6061589;23;20452;-71
2022/10/19 01:48:15;;;;;;;7.77;3.10;;;7.50;99.90;;;;;;6061972;23;20034;-72
2022/10/19 01:51:02;;;;;;;8.73;3.37;;;7.30;99.90;;;;;;6096781;23;20036;-71
2022/10/19 01:53:33;;;;;;;11.67;4.27;;;7.40;99.90;;;;;;6230593;22;20011;-73
2022/10/19 01:56:02;;;;;;;10.50;3.77;;;7.40;99.90;;;;;;6270829;22;20061;-71
2022/10/19 01:58:31;;;;;;;4.03;3.10;;;7.40;99.90;;;;;;6272692;22;20487;-71
2022/10/19 02:01:01;;;;;;;7.77;2.83;;;7.30;99.90;;;;;;6272564;22;20080;-71
2022/10/19 02:03:28;;;;;;;8.93;3.63;;;7.30;99.90;;;;;;6272442;22;20010;-71
2022/10/19 02:05:55;;;;;;;8.03;3.30;;;7.20;99.90;;;;;;6272144;22;20075;-71
2022/10/19 02:08:33;;;;;;;7.07;3.67;;;7.10;99.90;;;;;;6272510;22;20004;-71
2022/10/19 02:11:00;;;;;;;8.70;4.10;;;7.00;99.90;;;;;;6272697;22;20008;-71
2022/10/19 02:13:28;;;;;;;6.40;3.23;;;7.10;99.90;;;;;;6272267;22;20007;-71
2022/10/19 02:15:56;;;;;;;8.13;4.57;;;7.20;99.90;;;;;;6272458;22;20086;-71
2022/10/19 02:18:29;;;;;;;8.60;3.20;;;7.20;99.90;;;;;;6272021;22;20378;-71
2022/10/19 02:20:55;;;;;;;8.82;3.78;;;7.10;99.90;;;;;;6271985;22;20479;-71
2022/10/19 02:23:24;;;;;;;8.67;3.50;;;7.10;99.90;;;;;;6272335;22;20000;-71
2022/10/19 02:25:50;;;;;;;10.07;3.63;;;7.00;99.90;;;;;;6272054;22;20012;-71
2022/10/19 02:28:15;;;;;;;10.27;3.40;;;7.00;99.90;;;;;;6272155;22;20073;-71
2022/10/19 02:30:41;;;;;;;9.83;3.90;;;6.90;99.90;;;;;;6272272;22;20079;-71
2022/10/19 02:33:07;;;;;;;4.50;3.20;;;7.00;99.90;;;;;;6272691;22;20007;-71
2022/10/19 02:35:33;;;;;;;8.63;3.43;;;6.90;99.90;;;;;;6271396;22;20008;-71
2022/10/19 02:38:01;;;;;;;6.53;3.90;;;6.90;99.90;;;;;;6272490;22;20007;-71
2022/10/19 02:40:30;;;;;;;6.33;3.20;;;6.90;99.90;;;;;;6272208;22;20000;-71
2022/10/19 02:43:03;;;;;;;6.83;3.40;;;6.70;99.90;;;;;;6272038;22;20011;-71
2022/10/19 02:45:39;;;;;;;6.30;3.80;;;6.80;99.90;;;;;;6272028;22;20019;-71
2022/10/19 02:48:15;;;;;;;8.00;3.17;;;6.70;99.90;;;;;;6272408;22;20325;-71
2022/10/19 02:50:46;;;;;;;5.00;3.40;;;6.80;99.90;;;;;;6271517;22;20008;-71
2022/10/19 02:53:12;;;;;;;7.10;3.40;;;6.90;99.90;;;;;;6272424;22;20031;-71
2022/10/19 02:55:38;;;;;;;8.60;3.73;;;7.00;99.90;;;;;;6271288;22;20368;-71
2022/10/19 02:58:04;;;;;;;7.33;3.97;;;6.90;99.90;;;;;;6272233;22;20000;-71
2022/10/19 03:00:29;;;;;;;8.30;3.67;;;6.80;99.90;;;;;;6269923;22;20010;-71
2022/10/19 03:02:55;;;;;;;6.90;3.30;;;;;;;;;;6271893;22;20000;-71
2022/10/19 03:05:21;;;;;;;6.70;3.67;;;6.70;99.90;;;;;;6271747;22;20010;-71
2022/10/19 03:07:46;;;;;;;9.13;4.23;;;6.60;99.90;;;;;;6270962;22;20405;-71
2022/10/19 03:10:12;;;;;;;8.40;3.10;;;6.70;99.90;;;;;;6270523;22;20098;-71
2022/10/19 03:12:37;;;;;;;6.77;3.40;;;6.70;99.90;;;;;;6268458;22;20122;-71
2022/10/19 03:15:03;;;;;;;10.90;3.80;;;6.70;99.90;;;;;;6269582;22;20421;-71
2022/10/19 03:17:29;;;;;;;5.33;3.60;;;6.60;99.90;;;;;;6268850;22;20423;-71
2022/10/19 03:19:54;;;;;;;8.57;3.70;;;6.60;99.90;;;;;;6269422;22;20008;-71
2022/10/19 03:22:20;;;;;;;4.50;3.30;;;6.70;99.90;;;;;;6269357;22;20003;-71
2022/10/19 03:24:45;;;;;;;8.67;3.73;;;6.40;99.90;;;;;;6269348;22;20027;-71
2022/10/19 03:27:11;;;;;;;9.30;3.90;;;6.50;99.90;;;;;;6272008;22;19996;-71
2022/10/19 03:29:36;;;;;;;17.27;4.40;;;6.60;99.90;;;;;;6270964;22;20004;-71
2022/10/19 03:32:02;;;;;;;10.23;4.10;;;6.50;99.90;;;;;;6271351;22;20027;-71
2022/10/19 03:34:28;;;;;;;6.90;4.30;;;6.60;99.90;;;;;;6271369;22;20004;-71
2022/10/19 03:36:55;;;;;;;4.83;2.97;;;;;;;;;;6271369;22;20004;-72
2022/10/19 03:39:21;;;;;;;7.53;4.30;;;6.50;99.90;;;;;;6271624;22;20026;-71
2022/10/19 03:41:46;;;;;;;6.53;3.53;;;6.50;99.90;;;;;;6271213;22;20004;-71
2022/10/19 03:44:12;;;;;;;8.13;3.77;;;6.50;99.90;;;;;;6271911;22;20027;-71
2022/10/19 03:46:38;;;;;;;7.37;4.33;;;6.30;99.90;;;;;;6270700;22;20000;-71
2022/10/19 03:49:04;;;;;;;7.57;3.27;;;6.50;99.90;;;;;;6271879;22;20000;-71
2022/10/19 03:51:31;;;;;;;5.23;3.67;;;6.40;99.90;;;;;;6269482;22;20014;-71
2022/10/19 03:53:59;;;;;;;8.27;4.47;;;6.40;99.90;;;;;;6271554;22;20004;-71
2022/10/19 03:56:26;;;;;;;5.97;3.40;;;6.40;99.90;;;;;;6271467;22;20328;-71
2022/10/19 03:58:55;;;;;;;6.07;3.33;;;6.40;99.90;;;;;;6271459;22;20000;-71
2022/10/19 04:01:29;;;;;;;8.80;3.47;;;6.30;99.90;;;;;;6270987;22;20027;-71
2022/10/19 04:03:58;;;;;;;9.50;3.57;;;6.30;99.90;;;;;;6271578;22;20075;-71
2022/10/19 04:06:36;;;;;;;9.13;3.97;;;6.40;99.90;;;;;;6271463;22;20339;-71
2022/10/19 04:09:02;;;;;;;7.20;3.53;;;6.20;99.90;;;;;;6271925;22;19995;-71
2022/10/19 04:11:29;;;;;;;5.10;2.50;;;6.20;99.90;;;;;;6271553;22;20007;-71
2022/10/19 04:13:56;;;;;;;6.80;3.57;;;6.30;99.90;;;;;;6271607;22;20054;-71
2022/10/19 04:16:23;;;;;;;9.13;3.40;;;6.20;99.90;;;;;;6270776;22;20421;-72
2022/10/19 04:18:49;;;;;;;7.47;3.73;;;6.20;99.90;;;;;;6271685;22;20061;-71
2022/10/19 04:21:30;;;;;;;9.40;3.60;;;6.10;99.90;;;;;;6271583;22;20031;-71
2022/10/19 04:23:59;;;;;;;8.63;3.50;;;5.90;99.90;;;;;;6271371;22;20000;-71
2022/10/19 04:26:25;;;;;;;7.13;3.77;;;6.10;99.90;;;;;;6271623;22;20000;-71
2022/10/19 04:28:51;;;;;;;6.43;3.27;;;5.90;99.90;;;;;;6270722;22;20050;-71
2022/10/19 04:31:17;;;;;;;9.07;4.37;;;6.10;99.90;;;;;;6270617;22;20000;-71
2022/10/19 04:33:42;;;;;;;6.87;3.87;;;6.00;99.90;;;;;;6270442;22;20298;-71
2022/10/19 04:36:10;;;;;;;5.27;3.43;;;6.00;99.90;;;;;;6271258;22;20012;-70
2022/10/19 04:38:36;;;;;;;7.73;4.40;;;6.10;99.90;;;;;;6270747;22;20390;-71
2022/10/19 04:41:08;;;;;;;6.20;3.57;;;5.70;99.90;;;;;;6272295;22;20006;-71
2022/10/19 04:43:33;;;;;;;8.87;3.43;;;5.80;99.90;;;;;;6272734;22;20009;-71
2022/10/19 04:46:13;;;;;;;7.43;3.90;;;5.90;99.90;;;;;;6272005;22;20274;-71
2022/10/19 04:48:40;;;;;;;7.33;3.43;;;5.80;99.90;;;;;;6272274;22;20439;-71
2022/10/19 04:51:06;;;;;;;7.63;4.57;;;6.00;99.90;;;;;;6272500;22;20011;-71
2022/10/19 04:53:32;;;;;;;9.60;3.90;;;5.80;99.90;;;;;;6273024;22;20058;-72
2022/10/19 04:55:58;;;;;;;10.97;4.10;;;5.80;99.90;;;;;;6273279;22;20004;-71
2022/10/19 04:58:24;;;;;;;10.70;4.67;;;5.90;99.90;;;;;;6273276;22;20444;-71
2022/10/19 05:00:49;;;;;;;7.43;4.43;;;5.90;99.90;;;;;;6271913;22;20015;-71
2022/10/19 05:03:16;;;;;;;6.57;4.60;;;5.70;99.90;;;;;;6271064;22;20432;-71
2022/10/19 05:05:41;;;;;;;8.10;4.47;;;5.80;99.90;;;;;;6273048;22;20057;-71
2022/10/19 05:08:08;;;;;;;9.17;5.77;;;5.90;99.90;;;;;;6273725;22;20004;-71
2022/10/19 05:10:35;;;;;;;8.97;4.97;;;5.70;99.90;;;;;;6271383;22;20376;-71
2022/10/19 05:13:03;;;;;;;13.30;5.20;;;5.60;99.90;;;;;;6273154;22;20011;-71
2022/10/19 05:15:29;;;;;;;9.17;6.80;;;5.80;99.90;;;;;;6272575;22;20051;-71
2022/10/19 05:17:55;;;;;;;14.60;4.90;;;5.80;99.90;;;;;;6273170;22;20008;-71
2022/10/19 05:20:21;;;;;;;6.47;3.57;;;5.70;99.90;;;;;;6273026;22;20126;-71
2022/10/19 05:22:47;;;;;;;8.73;3.47;;;5.80;99.90;;;;;;6273217;22;20011;-71
2022/10/19 05:25:12;;;;;;;7.13;3.07;;;6.00;99.90;;;;;;6273214;22;20007;-71
2022/10/19 05:27:38;;;;;;;7.73;3.90;;;6.00;99.90;;;;;;6272671;22;20096;-71
2022/10/19 05:30:05;;;;;;;8.47;3.70;;;6.10;99.90;;;;;;6272737;22;20046;-71
2022/10/19 05:32:31;;;;;;;6.57;4.10;;;5.70;99.90;;;;;;6273052;22;20000;-71
2022/10/19 05:34:56;;;;;;;6.60;2.60;;;5.70;99.90;;;;;;6272964;22;20011;-71
2022/10/19 05:37:22;;;;;;;6.13;3.73;;;5.90;99.90;;;;;;6273011;22;20000;-71
2022/10/19 05:39:47;;;;;;;6.70;3.50;;;5.70;99.90;;;;;;6273082;22;20022;-71
2022/10/19 05:42:13;;;;;;;6.03;3.23;;;5.80;99.90;;;;;;6273272;22;20000;-71
2022/10/19 05:44:38;;;;;;;8.10;3.37;;;5.70;99.90;;;;;;6272072;22;20424;-71
2022/10/19 05:47:04;;;;;;;9.67;4.10;;;5.60;99.90;;;;;;6273092;22;20433;-71
2022/10/19 05:49:29;;;;;;;6.93;3.90;;;5.80;99.90;;;;;;6272849;22;20074;-71
2022/10/19 05:51:55;;;;;;;11.27;3.70;;;5.50;99.90;;;;;;6272371;22;20133;-71
2022/10/19 05:54:21;;;;;;;6.80;3.93;;;5.30;99.90;;;;;;6272754;22;19999;-71
2022/10/19 05:56:47;;;;;;;8.50;3.93;;;5.70;99.90;;;;;;6273147;22;20506;-70
2022/10/19 05:59:18;;;;;;;8.27;4.17;;;5.60;99.90;;;;;;6271848;22;20000;-70
2022/10/19 06:01:44;;;;;;;14.30;4.93;;;5.60;99.90;;;;;;6272759;22;20011;-71
2022/10/19 06:04:12;;;;;;;12.77;6.93;;;5.60;99.90;;;;;;6272847;22;20444;-70
2022/10/19 06:06:38;;;;;;;13.03;5.33;;;5.70;99.90;;;;;;6272282;22;20004;-70
2022/10/19 06:09:04;;;;;;;17.00;7.83;;;5.80;99.90;;;;;;6272847;22;20027;-70
2022/10/19 06:11:35;;;;;;;11.73;6.73;;;5.80;99.90;;;;;;6272103;22;20074;-70
2022/10/19 06:14:03;;;;;;;10.57;6.53;;;6.10;99.90;;;;;;6272605;22;20000;-70
2022/10/19 06:16:30;;;;;;;11.20;6.53;;;6.10;99.90;;;;;;6272268;22;20003;-70
2022/10/19 06:18:56;;;;;;;13.73;7.13;;;6.20;99.90;;;;;;6272612;22;20003;-71
2022/10/19 06:21:25;;;;;;;14.60;7.97;;;6.50;99.90;;;;;;6272273;22;19999;-70
2022/10/19 06:23:52;;;;;;;18.03;7.17;;;6.40;99.90;;;;;;6272520;22;20380;-70
2022/10/19 06:26:18;;;;;;;14.07;7.83;;;6.50;99.90;;;;;;6271892;22;20006;-71
2022/10/19 06:28:44;;;;;;;16.30;9.30;;;6.50;99.90;;;;;;6272686;22;20484;-71
2022/10/19 06:31:11;;;;;;;14.60;7.60;;;6.60;99.90;;;;;;6272817;22;20045;-71
2022/10/19 06:33:39;;;;;;;19.07;8.90;;;6.70;99.90;;;;;;6272068;22;19996;-71
2022/10/19 06:36:19;;;;;;;14.20;7.27;;;6.80;99.90;;;;;;6272532;22;20097;-71
2022/10/19 06:38:45;;;;;;;17.07;7.83;;;6.90;99.90;;;;;;6272529;22;20004;-71
2022/10/19 06:41:11;;;;;;;13.47;7.90;;;6.90;99.90;;;;;;6271874;22;19996;-71
2022/10/19 06:43:37;;;;;;;17.70;8.53;;;7.10;99.90;;;;;;6272043;22;20000;-71
2022/10/19 06:46:19;;;;;;;22.67;9.53;;;6.90;99.90;;;;;;6272636;22;20303;-71
2022/10/19 06:48:52;;;;;;;23.20;8.87;;;7.10;99.90;;;;;;6272610;22;20027;-71
2022/10/19 06:51:18;;;;;;;23.83;10.45;;;7.20;99.90;;;;;;6272132;22;20027;-70
2022/10/19 06:53:47;;;;;;;12.80;7.00;;;7.30;99.90;;;;;;6272473;22;20089;-71
2022/10/19 06:56:12;;;;;;;17.30;10.33;;;9.00;99.90;;;;;;6272176;22;20004;-70
2022/10/19 06:58:38;;;;;;;21.57;10.43;;;7.40;99.90;;;;;;6271758;22;20003;-70
2022/10/19 07:01:08;;;;;;;22.83;10.70;;;7.40;99.90;;;;;;6267670;22;20007;-71
2022/10/19 07:03:35;;;;;;;26.50;12.57;;;7.70;99.90;;;;;;6271995;22;19995;-71
2022/10/19 07:06:04;;;;;;;22.83;11.37;;;7.70;99.90;;;;;;6271375;22;20004;-71
2022/10/19 07:08:31;;;;;;;25.17;12.80;;;7.90;99.90;;;;;;6269087;22;20361;-69
2022/10/19 07:10:59;;;;;;;20.83;11.43;;;7.80;99.90;;;;;;6270155;22;20004;-70
2022/10/19 07:13:26;;;;;;;21.67;12.17;;;7.80;99.90;;;;;;6269827;22;20004;-69
2022/10/19 07:15:59;;;;;;;17.03;11.37;;;7.90;99.90;;;;;;6271864;22;20372;-70
2022/10/19 07:18:26;;;;;;;18.93;10.47;;;8.00;99.90;;;;;;6268637;22;20042;-70
2022/10/19 07:20:59;;;;;;;16.00;10.17;;;7.90;99.90;;;;;;6270856;22;20019;-70
2022/10/19 07:23:27;;;;;;;22.33;12.07;;;8.20;99.90;;;;;;6271950;22;20021;-70
2022/10/19 07:25:54;;;;;;;23.20;13.07;;;8.10;99.90;;;;;;6271309;22;20134;-70
2022/10/19 07:28:21;;;;;;;13.93;11.57;;;8.20;99.90;;;;;;6270220;22;19999;-70
2022/10/19 07:30:47;;;;;;;22.63;12.80;;;8.40;99.90;;;;;;6270424;22;20492;-70
2022/10/19 07:33:12;;;;;;;18.27;10.33;;;8.40;99.90;;;;;;6272110;22;20027;-70
2022/10/19 07:35:38;;;;;;;21.20;12.30;;;8.50;99.90;;;;;;6271219;22;20009;-70
2022/10/19 07:38:03;;;;;;;22.53;12.97;;;8.60;99.90;;;;;;6271790;22;20063;-70
2022/10/19 07:40:29;;;;;;;16.77;11.50;;;8.60;99.90;;;;;;6268325;22;20325;-69
2022/10/19 07:42:54;;;;;;;17.03;12.43;;;8.70;99.90;;;;;;6271507;22;20429;-69
2022/10/19 07:45:20;;;;;;;27.07;12.07;;;8.70;99.90;;;;;;6271360;22;20006;-70
2022/10/19 07:47:46;;;;;;;20.00;11.67;;;8.80;99.90;;;;;;6271371;22;20010;-71
2022/10/19 07:50:11;;;;;;;17.37;11.17;;;8.90;99.90;;;;;;6268809;22;20031;-69
2022/10/19 07:52:37;;;;;;;20.50;10.53;;;8.90;99.90;;;;;;6270820;22;20069;-70
2022/10/19 07:55:03;;;;;;;23.80;14.13;;;8.90;99.90;;;;;;6270835;22;20007;-70
2022/10/19 07:57:28;;;;;;;16.27;11.60;;;9.00;99.90;;;;;;6271379;22;20010;-70
2022/10/19 07:59:54;;;;;;;28.30;13.27;;;9.10;99.90;;;;;;6269423;22;20072;-70
2022/10/19 08:02:19;;;;;;;21.73;13.40;;;9.20;99.90;;;;;;6270061;22;20383;-70
2022/10/19 08:04:45;;;;;;;20.97;10.83;;;9.20;99.90;;;;;;6271211;22;20455;-70
2022/10/19 08:07:11;;;;;;;20.73;12.13;;;;;;;;;;6271714;22;20007;-70
2022/10/19 08:09:36;;;;;;;26.63;13.80;;;9.40;99.90;;;;;;6268982;22;20003;-70
2022/10/19 08:12:03;;;;;;;23.40;12.93;;;9.50;99.90;;;;;;6269464;22;20425;-70
2022/10/19 08:14:29;;;;;;;28.73;16.57;;;9.50;99.90;;;;;;6271005;22;20039;-70
2022/10/19 08:16:55;;;;;;;21.90;13.77;;;9.60;99.90;;;;;;6272601;22;20003;-70
2022/10/19 08:19:21;;;;;;;24.73;14.97;;;9.60;99.90;;;;;;6271988;22;20422;-70
2022/10/19 08:21:47;;;;;;;22.87;13.23;;;9.70;99.90;;;;;;6272932;22;20053;-70
2022/10/19 08:24:15;;;;;;;23.23;13.77;;;9.80;99.90;;;;;;6271336;22;20011;-70
2022/10/19 08:26:42;;;;;;;22.80;12.73;;;9.70;99.90;;;;;;6272888;22;20066;-71
2022/10/19 08:29:16;;;;;;;22.03;12.50;;;9.70;99.90;;;;;;6271813;22;20091;-70
2022/10/19 08:31:43;;;;;;;23.10;12.87;;;9.90;99.90;;;;;;6272496;22;20027;-70
2022/10/19 08:34:09;;;;;;;23.33;11.43;;;10.00;99.90;;;;;;6270421;22;20119;-70
2022/10/19 08:36:35;;;;;;;17.57;9.97;;;10.10;99.90;;;;;;6271242;22;20362;-70
2022/10/19 08:39:03;;;;;;;18.27;9.03;;;10.10;99.90;;;;;;6269731;22;20530;-70
2022/10/19 08:41:35;;;;;;;15.37;9.57;;;10.20;99.90;;;;;;6272887;22;20423;-71
2022/10/19 08:44:16;;;;;;;16.70;9.13;;;10.40;99.90;;;;;;6271680;22;20046;-70
2022/10/19 08:47:18;;;;;;;15.30;7.77;;;10.30;99.90;;;;;;6273459;22;20378;-70
2022/10/19 08:49:45;;;;;;;17.80;7.83;;;10.50;99.90;;;;;;6271937;22;20455;-70
2022/10/19 08:52:18;;;;;;;15.03;5.93;;;10.70;99.90;;;;;;6272535;22;19996;-70
2022/10/19 08:54:56;;;;;;;10.60;6.13;;;10.70;99.90;;;;;;6271511;22;20106;-70
2022/10/19 08:57:52;;;;;;;12.67;6.40;;;11.10;99.90;;;;;;6272511;22;19999;-70
2022/10/19 09:00:23;;;;;;;14.07;6.07;;;10.40;99.90;;;;;;6270871;22;20426;-70
2022/10/19 09:03:12;;;;;;;14.60;5.17;;;10.90;99.90;;;;;;6272694;22;20010;-70
2022/10/19 09:05:53;;;;;;;10.27;4.60;;;11.00;99.90;;;;;;6270914;22;20028;-70
2022/10/19 09:08:20;;;;;;;9.03;3.50;;;11.20;99.90;;;;;;6272504;22;20000;-70
2022/10/19 09:10:50;;;;;;;20.53;3.50;;;11.20;99.90;;;;;;6271150;22;20050;-70
2022/10/19 09:13:35;;;;;;;6.37;2.60;;;11.30;99.90;;;;;;6272712;22;20429;-70
2022/10/19 09:16:03;;;;;;;4.60;3.10;;;11.30;99.90;;;;;;6272424;22;20004;-70
2022/10/19 09:18:33;;;;;;;9.33;3.13;;;11.50;99.90;;;;;;6268227;22;20104;-70
2022/10/19 09:21:16;;;;;;;7.83;4.03;;;11.50;99.90;;;;;;6270325;22;19996;-70
2022/10/19 09:23:57;;;;;;;5.00;2.85;;;11.70;99.90;;;;;;6272627;22;20000;-70
2022/10/19 09:26:31;;;;;;;7.43;3.00;;;11.80;99.90;;;;;;6271972;22;20015;-70
2022/10/19 09:29:06;;;;;;;6.20;2.83;;;11.80;99.90;;;;;;6270092;22;20080;-70
2022/10/19 09:31:36;;;;;;;8.67;3.60;;;11.90;99.90;;;;;;6272165;22;20004;-70
2022/10/19 09:34:06;;;;;;;5.10;3.10;;;11.60;99.90;;;;;;6272231;22;20496;-70
2022/10/19 09:36:40;;;;;;;7.68;2.85;;;12.10;99.90;;;;;;6272072;22;20087;-70
2022/10/19 09:39:08;;;;;;;12.15;2.80;;;12.10;99.90;;;;;;6269568;22;20121;-71
2022/10/19 09:41:34;;;;;;;4.88;2.70;;;12.10;99.90;;;;;;6272071;22;20007;-70
2022/10/19 09:44:00;;;;;;;10.10;3.42;;;12.20;99.90;;;;;;6272086;22;20026;-70
2022/10/19 09:46:35;;;;;;;10.35;3.13;;;12.20;99.90;;;;;;6271810;22;20390;-70
2022/10/19 09:49:03;;;;;;;6.47;3.28;;;12.30;99.90;;;;;;6269670;22;20099;-71
2022/10/19 09:51:51;;;;;;;4.32;2.85;;;12.40;99.90;;;;;;6271284;22;20302;-71
2022/10/19 09:54:49;;;;;;;4.47;2.92;;;12.20;99.90;;;;;;6272030;22;20091;-70
2022/10/19 09:57:19;;;;;;;5.90;2.75;;;12.30;99.90;;;;;;6248740;22;20082;-70
2022/10/19 09:59:51;;;;;;;3.22;2.25;;;13.00;99.90;;;;;;6270953;22;20000;-70
2022/10/19 10:02:19;;;;;;;7.25;2.20;;;12.40;99.90;;;;;;6271034;22;20072;-70
2022/10/19 10:04:53;;;;;;;3.85;2.20;;;12.30;99.90;;;;;;6270906;22;20007;-70
2022/10/19 10:07:19;;;;;;;2.88;1.98;;;12.50;99.90;;;;;;6272371;22;20363;-70
2022/10/19 10:09:45;;;;;;;8.30;2.47;;;12.50;99.90;;;;;;6270929;22;20008;-69
2022/10/19 10:12:14;;;;;;;7.50;1.95;;;12.50;99.90;;;;;;6270142;22;20003;-70
2022/10/19 10:14:40;;;;;;;4.45;1.92;;;12.60;99.90;;;;;;6271541;22;20004;-70
2022/10/19 10:17:26;;;;;;;3.85;1.67;;;12.50;99.90;;;;;;6272023;22;20057;-70
2022/10/19 10:19:58;;;;;;;2.90;1.63;;;13.60;99.90;;;;;;6269761;22;20006;-69
2022/10/19 10:22:32;;;;;;;4.35;1.58;;;15.00;99.90;;;;;;6268558;22;20396;-70
2022/10/19 10:24:57;;;;;;;7.85;1.98;;;12.60;99.90;;;;;;6272005;22;20012;-70
2022/10/19 10:27:32;;;;;;;6.40;1.90;;;12.70;99.90;;;;;;6272207;22;20014;-70
2022/10/19 10:29:58;;;;;;;5.13;1.85;;;12.70;99.90;;;;;;6270841;22;20006;-70
2022/10/19 10:32:25;;;;;;;5.05;1.52;;;12.80;99.90;;;;;;6270503;22;20004;-70
2022/10/19 10:35:03;;;;;;;5.90;2.45;;;12.80;99.90;;;;;;6271875;22;20015;-70
2022/10/19 10:37:40;;;;;;;5.55;3.45;;;12.80;99.90;;;;;;6271431;22;20000;-70
2022/10/19 10:40:22;;;;;;;4.95;1.80;;;12.90;99.90;;;;;;6269903;22;20004;-70
2022/10/19 10:42:50;;;;;;;7.05;2.08;;;12.80;99.90;;;;;;6270078;22;19996;-70
2022/10/19 10:45:28;;;;;;;4.05;1.73;;;12.80;99.90;;;;;;6271157;22;20659;-70
2022/10/19 10:47:53;;;;;;;2.85;1.48;;;12.90;99.90;;;;;;6271392;22;20409;-70
2022/10/19 10:50:31;;;;;;;5.22;1.40;;;13.00;99.90;;;;;;6271128;22;20121;-70
2022/10/19 10:53:02;;;;;;;4.07;1.30;;;13.10;99.90;;;;;;6271250;22;20031;-71
2022/10/19 10:55:29;;;;;;;4.85;1.38;;;13.10;99.90;;;;;;6271377;22;20007;-70
2022/10/19 10:58:12;;;;;;;3.53;1.55;;;13.20;99.90;;;;;;6271745;22;19991;-70
2022/10/19 11:00:39;;;;;;;5.10;1.80;;;13.10;99.90;;;;;;6267918;22;20449;-70
2022/10/19 11:03:13;;;;;;;7.32;1.77;;;13.20;99.90;;;;;;6271336;22;19995;-70
2022/10/19 11:05:46;;;;;;;6.43;1.60;;;13.20;99.90;;;;;;6268773;22;20087;-70
2022/10/19 11:08:17;;;;;;;5.15;1.35;;;13.20;99.90;;;;;;6271177;22;20003;-70
2022/10/19 11:11:08;;;;;;;3.97;1.55;;;13.10;99.90;;;;;;6269988;22;20375;-70
2022/10/19 11:13:44;;;;;;;9.00;2.28;;;13.10;99.90;;;;;;6271542;22;20011;-70
2022/10/19 11:16:38;;;;;;;4.47;1.60;;;13.40;99.90;;;;;;6269975;22;20010;-70
2022/10/19 11:19:15;;;;;;;5.38;1.80;;;13.10;99.90;;;;;;6270864;22;20397;-69
2022/10/19 11:21:49;;;;;;;6.47;1.70;;;13.00;99.90;;;;;;6271706;22;20418;-68
2022/10/19 11:24:31;;;;;;;3.42;1.00;;;13.20;99.90;;;;;;6271231;22;20691;-69
2022/10/19 11:27:20;;;;;;;5.68;1.40;;;13.20;99.90;;;;;;6270889;22;20403;-69
2022/10/19 11:29:52;;;;;;;6.72;1.63;;;13.20;99.90;;;;;;6270241;22;20012;-69
2022/10/19 11:32:39;;;;;;;5.35;1.58;;;13.20;99.90;;;;;;6271010;22;19996;-70
2022/10/19 11:35:43;;;;;;;8.57;1.98;;;13.30;99.90;;;;;;6271374;22;19995;-70
2022/10/19 11:38:47;;;;;;;7.28;1.60;;;13.20;99.90;;;;;;6148873;23;20021;-70
2022/10/19 11:41:28;;;;;;;3.92;1.30;;;13.20;99.90;;;;;;6148789;23;20032;-71
2022/10/19 11:44:15;;;;;;;5.95;1.67;;;13.50;99.90;;;;;;6146556;23;20033;-70
2022/10/19 11:46:44;;;;;;;6.07;1.60;;;13.20;99.90;;;;;;6143599;23;20317;-70
2022/10/19 11:49:18;;;;;;;4.38;1.20;;;13.20;99.90;;;;;;6144354;23;20012;-70
2022/10/19 11:51:45;;;;;;;7.68;1.40;;;13.20;99.90;;;;;;6145657;23;20021;-70
2022/10/19 11:54:30;;;;;;;4.72;1.60;;;13.10;99.90;;;;;;6123352;23;20005;-70
2022/10/19 11:57:15;;;;;;;4.03;1.85;;;13.20;99.90;;;;;;6146512;23;20764;-70
2022/10/19 11:59:46;;;;;;;5.95;1.02;;;13.20;99.90;;;;;;6145830;23;20008;-70
2022/10/19 12:02:30;;;;;;;5.72;1.23;;;13.20;99.90;;;;;;6148465;23;20548;-70
2022/10/19 12:05:10;;;;;;;3.65;1.17;;;14.50;99.90;;;;;;6148229;23;20108;-70
2022/10/19 12:07:38;;;;;;;3.47;1.42;;;13.30;99.90;;;;;;6146443;23;20508;-70
2022/10/19 12:10:15;;;;;;;8.52;1.92;;;13.30;99.90;;;;;;6267029;22;20030;-70
2022/10/19 12:13:00;;;;;;;5.82;1.67;;;13.30;99.90;;;;;;6272131;22;20026;-70
2022/10/19 12:15:28;;;;;;;;;;;13.30;99.90;;;;;;6272020;22;19996;-69
2022/10/19 12:18:00;;;;;;;8.88;0.93;;;13.80;99.90;;;;;;6271966;22;19899;-69
2022/10/19 12:20:38;;;;;;;12.60;1.38;;;13.20;99.90;;;;;;6269844;22;20003;-70
2022/10/19 12:23:31;;;;;;;6.30;1.30;;;13.40;99.90;;;;;;6272323;22;19992;-70
2022/10/19 12:26:00;;;;;;;4.90;1.10;;;13.30;99.90;;;;;;6271769;22;20019;-70
2022/10/19 12:28:30;;;;;;;8.55;1.20;;;13.30;99.90;;;;;;6271391;22;20033;-69
2022/10/19 12:30:57;;;;;;;5.57;1.50;;;13.30;99.90;;;;;;6269012;22;20074;-70
2022/10/19 12:33:29;;;;;;;5.65;1.05;;;13.40;99.90;;;;;;6270700;22;20030;-70
2022/10/19 12:36:11;;;;;;;3.70;1.10;;;13.40;99.90;;;;;;6270677;22;20034;-69
2022/10/19 12:38:37;;;;;;;5.88;1.75;;;13.30;99.90;;;;;;6270971;22;20074;-69
2022/10/19 12:41:09;;;;;;;5.25;1.00;;;13.40;99.90;;;;;;6268994;22;20046;-70
2022/10/19 12:43:42;;;;;;;3.50;1.10;;;13.40;99.90;;;;;;6271378;22;20000;-70
2022/10/19 12:46:21;;;;;;;5.88;1.10;;;13.40;99.90;;;;;;6271607;22;19996;-69
2022/10/19 12:49:24;;;;;;;4.50;1.30;;;13.50;99.90;;;;;;6270690;22;20098;-69
2022/10/19 12:51:51;;;;;;;4.18;1.10;;;13.60;99.90;;;;;;6269490;22;20034;-70
2022/10/19 12:54:24;;;;;;;3.35;0.93;;;13.50;99.90;;;;;;6270940;22;20677;-69
2022/10/19 12:56:54;;;;;;;;;;;13.60;99.90;;;;;;6272055;22;20003;-69
2022/10/19 12:59:27;;;;;;;5.45;0.77;;;13.50;99.90;;;;;;6270078;22;19948;-69
2022/10/19 13:01:55;;;;;;;2.47;0.73;;;13.50;99.90;;;;;;6271338;22;20463;-69
2022/10/19 13:04:24;;;;;;;3.53;0.90;;;13.60;99.90;;;;;;6272043;22;20349;-69
2022/10/19 13:07:02;;;;;;;6.10;1.67;;;13.50;99.90;;;;;;6271912;22;20030;-69
2022/10/19 13:09:42;;;;;;;3.05;1.00;;;13.60;99.90;;;;;;6271915;22;20025;-69
2022/10/19 13:12:26;;;;;;;6.60;1.23;;;13.60;99.90;;;;;;6272571;22;20622;-69